Aérodrome :
LOGIN :

S'inscrire | Disclaimer

   EN    FR    IT 

 










Légende :    VFR   VFR Marginal   IFR   IFR Intensif   IFR Très Intensif
Visi : 
Plafond : 
>= 8 km
>= 3000ft
5 à 8 km
1000 à 3000 ft
1500m à 5 km
500 à 1000 ft
800 à 1500m
200 à 500 ft
< 800m
< 200 ft
Symboles :   Orages  Brouillard  Fortes neiges  Fortes précipitations  Vent > 20 kt
SIGMETs :   Divers  Orages  Givrage  Turbulence  Onde Orograph.  Cendres Volcan.






- Altitude de l'aérodrome : 1947 ft
- Code IATA : OBF


EDMO - Oberpfaffenhofen

DERNIER METAR :
  • 060550Z 00000KT 0200 R22/0400N FZFG VV/// M07/M08 Q1020

METARs EXPIRÉS :
  • 060520Z AUTO 00000KT 0350 R22/0450N // VV002 M07/M08 Q1020
  • 060450Z AUTO VRB02KT 0400 R22/0600N // VV002 M06/M07 Q1020
  • 060420Z AUTO 34003KT 300V360 0800 R22/1500D // FEW001/// M07/M08 Q1020
  • 060350Z AUTO VRB01KT 9999 // NCD M07/M07 Q1020
  • 060320Z AUTO VRB02KT 9000 // NCD M06/M07 Q1020

Prévision TAF périmée.



MET'MAP, la Météo Aéronautique d'un coup d'oeil ! - Copyright ORBIFLY Décembre 2007 - Disclaimer

ORBIFLY MET'MAP TEAM :

Programmation & Développement : Alexandra Zaïnal
Sur une idée originale de : Baudouin d'Aumeries
Assistance à la programmation : Marc-Olivier Méhu
Soutien technique & logistique : Manuel Goepfert

Contact : metmap@orbifly.com




SOURCES & CREDITS :

   NOAA